createdAt,value
2023-02-24T00:02:01.141Z,18.80
2023-02-24T00:04:32.657Z,19.77
2023-02-24T00:07:01.164Z,18.63
2023-02-24T00:09:33.330Z,17.37
2023-02-24T00:12:05.425Z,19.80
2023-02-24T00:14:41.902Z,19.03
2023-02-24T00:17:12.504Z,17.55
2023-02-24T00:19:41.111Z,18.17
2023-02-24T00:22:10.430Z,17.47
2023-02-24T00:24:40.098Z,18.03
2023-02-24T00:27:11.101Z,17.08
2023-02-24T00:29:41.739Z,16.23
2023-02-24T00:32:12.653Z,16.65
2023-02-24T00:34:42.028Z,16.23
2023-02-24T00:37:10.459Z,17.23
2023-02-24T00:39:41.516Z,17.47
2023-02-24T00:42:12.406Z,18.07
2023-02-24T00:44:44.929Z,16.53
2023-02-24T00:47:16.200Z,16.53
2023-02-24T00:49:45.125Z,16.20
2023-02-24T00:52:16.488Z,16.25
2023-02-24T00:54:47.780Z,16.70
2023-02-24T00:57:18.179Z,16.45
2023-02-24T00:59:47.523Z,16.60
2023-02-24T01:02:16.826Z,16.80
2023-02-24T01:04:46.574Z,17.00
2023-02-24T01:07:15.881Z,16.73
2023-02-24T01:09:44.385Z,16.75
2023-02-24T01:12:32.709Z,16.48
2023-02-24T01:15:03.004Z,16.35
2023-02-24T01:17:31.270Z,15.65
2023-02-24T01:20:00.855Z,15.63
2023-02-24T01:22:29.210Z,13.43
2023-02-24T01:24:57.366Z,14.63
2023-02-24T01:27:26.930Z,13.55
2023-02-24T01:29:55.090Z,14.07
2023-02-24T01:32:24.367Z,13.43
2023-02-24T01:34:54.278Z,13.80
2023-02-24T01:37:23.952Z,11.82
2023-02-24T01:39:52.456Z,12.37
2023-02-24T01:42:23.421Z,13.30
2023-02-24T01:45:14.613Z,12.32
2023-02-24T01:47:46.795Z,13.07
2023-02-24T01:50:17.965Z,12.93
2023-02-24T01:52:50.860Z,12.32
2023-02-24T01:55:25.337Z,12.57
2023-02-24T01:57:55.280Z,12.23
2023-02-24T02:00:38.326Z,13.43
2023-02-24T02:03:19.465Z,14.18
2023-02-24T02:05:49.027Z,14.90
2023-02-24T02:08:21.843Z,15.48
2023-02-24T02:10:53.478Z,15.85
2023-02-24T02:13:22.034Z,15.93
2023-02-24T02:16:05.383Z,16.65
2023-02-24T02:18:47.996Z,15.77
2023-02-24T02:22:05.406Z,16.33
2023-02-24T02:24:52.592Z,14.90
2023-02-24T02:28:20.750Z,15.23
2023-02-24T02:31:39.368Z,13.63
2023-02-24T02:34:31.451Z,12.87
2023-02-24T02:37:09.194Z,13.43
2023-02-24T02:39:52.540Z,14.75
2023-02-24T02:42:30.125Z,13.98
2023-02-24T02:45:09.841Z,13.48
2023-02-24T02:47:50.517Z,14.63
2023-02-24T02:50:27.003Z,14.40
2023-02-24T02:53:00.629Z,14.50
2023-02-24T02:55:39.023Z,13.70
2023-02-24T02:58:14.709Z,14.37
2023-02-24T03:00:58.640Z,14.27
2023-02-24T03:03:30.809Z,15.00
2023-02-24T03:06:07.474Z,13.68
2023-02-24T03:08:40.585Z,15.60
2023-02-24T03:11:16.118Z,15.83
2023-02-24T03:13:49.644Z,16.92
2023-02-24T03:16:20.719Z,17.75
2023-02-24T03:18:56.600Z,18.10
2023-02-24T03:21:34.082Z,18.50
2023-02-24T03:24:05.667Z,17.33
2023-02-24T03:26:44.188Z,19.07
2023-02-24T03:29:23.807Z,20.67
2023-02-24T03:31:59.396Z,19.10
2023-02-24T03:34:40.930Z,20.08
2023-02-24T03:37:10.972Z,20.13
2023-02-24T03:39:39.958Z,18.98
2023-02-24T03:42:21.201Z,19.00
2023-02-24T03:44:50.705Z,19.43
2023-02-24T03:47:20.418Z,18.95
2023-02-24T03:49:50.368Z,18.07
2023-02-24T03:52:40.202Z,18.57
2023-02-24T03:55:26.710Z,18.40
2023-02-24T03:58:14.328Z,18.60
2023-02-24T04:00:56.768Z,20.40
2023-02-24T04:03:35.752Z,19.87
2023-02-24T04:06:28.215Z,19.20
2023-02-24T04:09:13.130Z,19.53
2023-02-24T04:11:59.050Z,18.60
2023-02-24T04:14:36.938Z,17.20
2023-02-24T04:17:19.277Z,16.77
2023-02-24T04:19:55.471Z,17.57
2023-02-24T04:22:27.482Z,17.60
2023-02-24T04:25:02.846Z,19.00
2023-02-24T04:27:31.742Z,21.73
2023-02-24T04:30:14.494Z,25.45
2023-02-24T04:32:44.200Z,23.60
2023-02-24T04:35:16.984Z,25.35
2023-02-24T04:37:50.436Z,27.48
2023-02-24T04:40:22.907Z,23.37
2023-02-24T04:42:52.890Z,24.17
2023-02-24T04:45:23.865Z,23.08
2023-02-24T04:47:56.103Z,22.13
2023-02-24T04:50:26.488Z,21.92
2023-02-24T04:52:57.744Z,22.75
2023-02-24T04:55:32.905Z,23.53
2023-02-24T04:58:02.989Z,23.67
2023-02-24T05:00:35.512Z,22.20
2023-02-24T05:03:06.504Z,23.27
2023-02-24T05:05:35.429Z,23.92
2023-02-24T05:08:07.305Z,22.13
2023-02-24T05:10:40.973Z,20.27
2023-02-24T05:13:12.182Z,22.50
2023-02-24T05:15:43.157Z,23.43
2023-02-24T05:18:17.136Z,22.90
2023-02-24T05:21:07.495Z,22.83
2023-02-24T05:23:39.331Z,25.15
2023-02-24T05:26:11.775Z,25.30
2023-02-24T05:28:42.029Z,25.85
2023-02-24T05:31:14.911Z,23.57
2023-02-24T05:33:44.895Z,25.20
2023-02-24T05:36:17.287Z,25.50
2023-02-24T05:38:47.676Z,24.88
2023-02-24T05:41:20.139Z,24.50
2023-02-24T05:43:53.145Z,25.13
2023-02-24T05:46:28.046Z,23.08
2023-02-24T05:48:57.850Z,25.60
2023-02-24T05:51:26.710Z,24.77
2023-02-24T05:53:56.073Z,24.13
2023-02-24T05:56:27.237Z,24.07
2023-02-24T05:59:01.953Z,25.83
2023-02-24T06:01:31.385Z,24.25
2023-02-24T06:04:05.907Z,24.50
2023-02-24T06:06:39.221Z,24.70
2023-02-24T06:09:10.719Z,25.35
2023-02-24T06:11:42.236Z,24.85
2023-02-24T06:14:12.147Z,25.63
2023-02-24T06:16:43.413Z,25.70
2023-02-24T06:19:13.539Z,27.60
2023-02-24T06:21:43.777Z,25.53
2023-02-24T06:24:15.209Z,25.17
2023-02-24T06:26:45.728Z,27.83
2023-02-24T06:29:15.733Z,28.60
2023-02-24T06:31:44.660Z,31.65
2023-02-24T06:34:14.869Z,31.23
2023-02-24T06:36:43.591Z,29.20
2023-02-24T06:39:14.456Z,28.27
2023-02-24T06:41:44.036Z,28.10
2023-02-24T06:44:12.288Z,27.03
2023-02-24T06:46:41.243Z,27.50
2023-02-24T06:49:09.923Z,28.40
2023-02-24T06:51:38.999Z,28.97
2023-02-24T06:54:07.505Z,28.40
2023-02-24T06:56:38.749Z,27.92
2023-02-24T06:59:11.843Z,27.55
2023-02-24T07:01:45.104Z,28.95
2023-02-24T07:04:20.843Z,27.23
2023-02-24T07:06:52.503Z,25.37
2023-02-24T07:09:24.004Z,26.10
2023-02-24T07:11:56.963Z,25.63
2023-02-24T07:14:30.562Z,25.83
2023-02-24T07:17:00.093Z,27.13
2023-02-24T07:19:32.300Z,27.15
2023-02-24T07:22:03.707Z,27.07
2023-02-24T07:24:36.430Z,26.88
2023-02-24T07:27:07.820Z,27.70
2023-02-24T07:29:38.635Z,26.17
2023-02-24T07:32:09.815Z,28.33
2023-02-24T07:34:40.080Z,27.27
2023-02-24T07:37:09.827Z,30.15
2023-02-24T07:39:39.660Z,29.20
2023-02-24T07:42:10.531Z,30.25
2023-02-24T07:44:49.016Z,29.30
2023-02-24T07:47:17.493Z,28.77
2023-02-24T07:49:46.072Z,28.40
2023-02-24T07:52:16.039Z,29.13
2023-02-24T07:54:44.258Z,30.10
2023-02-24T07:57:13.734Z,28.30
2023-02-24T07:59:46.714Z,27.67
2023-02-24T08:02:16.810Z,26.83
2023-02-24T08:04:50.080Z,26.58
2023-02-24T08:07:24.312Z,28.38
2023-02-24T08:10:14.003Z,27.52
2023-02-24T08:12:47.489Z,26.98
2023-02-24T08:15:23.784Z,26.25
2023-02-24T08:17:59.371Z,26.23
2023-02-24T08:20:29.868Z,26.73
2023-02-24T08:22:58.473Z,27.58
2023-02-24T08:25:36.457Z,28.17
2023-02-24T08:28:11.198Z,28.48
2023-02-24T08:30:45.567Z,29.15
2023-02-24T08:33:21.911Z,28.23
2023-02-24T08:36:00.823Z,27.17
2023-02-24T08:38:41.796Z,31.13
2023-02-24T08:41:19.931Z,27.95
2023-02-24T08:43:50.284Z,29.15
2023-02-24T08:46:26.141Z,29.17
2023-02-24T08:49:00.837Z,27.95
2023-02-24T08:51:34.468Z,28.90
2023-02-24T08:54:10.771Z,28.25
2023-02-24T08:56:43.423Z,30.00
2023-02-24T08:59:29.118Z,26.88
2023-02-24T09:02:13.139Z,31.10
2023-02-24T09:04:44.802Z,24.30
2023-02-24T09:07:19.275Z,25.85
2023-02-24T09:09:48.194Z,27.42
2023-02-24T09:12:24.603Z,26.50
2023-02-24T09:14:57.036Z,43.53
2023-02-24T09:17:49.715Z,32.08
2023-02-24T09:20:52.028Z,27.30
2023-02-24T09:23:29.881Z,23.55
2023-02-24T09:25:58.453Z,24.80
2023-02-24T09:28:32.734Z,24.08
2023-02-24T09:31:04.798Z,25.63
2023-02-24T09:33:39.446Z,27.65
2023-02-24T09:36:12.911Z,25.30
2023-02-24T09:39:02.616Z,24.40
2023-02-24T09:41:53.783Z,25.50
2023-02-24T09:44:33.164Z,24.67
2023-02-24T09:47:15.818Z,23.65
2023-02-24T09:49:56.197Z,23.25
2023-02-24T09:52:39.687Z,24.23
2023-02-24T09:55:25.139Z,23.92
2023-02-24T09:58:19.719Z,25.65
2023-02-24T10:00:59.657Z,23.42
2023-02-24T10:03:43.008Z,21.85
2023-02-24T10:06:21.386Z,22.05
2023-02-24T10:08:58.148Z,22.30
2023-02-24T10:11:33.825Z,23.42
2023-02-24T10:14:06.720Z,21.27
2023-02-24T10:16:43.090Z,21.77
2023-02-24T10:19:27.263Z,22.27
2023-02-24T10:22:04.201Z,20.60
2023-02-24T10:24:47.277Z,23.15
2023-02-24T10:27:23.993Z,24.58
2023-02-24T10:30:10.848Z,21.45
2023-02-24T10:32:50.416Z,21.00
2023-02-24T10:35:25.850Z,21.73
2023-02-24T10:38:00.910Z,19.52
2023-02-24T10:40:45.014Z,19.77
2023-02-24T10:43:19.431Z,21.20
2023-02-24T10:45:49.103Z,22.08
2023-02-24T10:48:40.328Z,20.38
2023-02-24T10:51:20.000Z,22.05
2023-02-24T10:54:09.938Z,22.23
2023-02-24T10:56:55.215Z,21.90
2023-02-24T10:59:48.461Z,22.88
2023-02-24T11:02:30.008Z,25.25
2023-02-24T11:05:25.094Z,23.30
2023-02-24T11:08:11.484Z,21.20
2023-02-24T11:10:53.210Z,23.00
2023-02-24T11:13:42.746Z,21.77
2023-02-24T11:16:29.635Z,23.00
2023-02-24T11:18:59.278Z,23.67
2023-02-24T11:21:29.065Z,22.63
2023-02-24T11:24:02.831Z,23.02
2023-02-24T11:26:38.781Z,22.67
2023-02-24T11:29:34.860Z,23.33
2023-02-24T11:32:33.484Z,22.98
2023-02-24T11:35:12.620Z,32.50
2023-02-24T11:37:44.786Z,25.65
2023-02-24T11:40:19.769Z,22.27
2023-02-24T11:42:54.425Z,22.15
2023-02-24T11:45:34.656Z,24.90
2023-02-24T11:48:14.841Z,26.63
2023-02-24T11:50:50.255Z,25.63
2023-02-24T11:53:35.333Z,22.02
2023-02-24T11:56:09.297Z,22.02
2023-02-24T11:58:47.434Z,20.33
2023-02-24T12:01:26.897Z,20.33
2023-02-24T12:04:10.860Z,20.27
2023-02-24T12:06:48.993Z,19.38
2023-02-24T12:09:23.724Z,17.52
2023-02-24T12:12:01.172Z,15.40
2023-02-24T12:14:40.492Z,17.83
2023-02-24T12:17:25.239Z,16.85
2023-02-24T12:20:05.511Z,16.58
2023-02-24T12:22:46.011Z,15.90
2023-02-24T12:25:16.707Z,16.10
2023-02-24T12:28:11.793Z,16.45
2023-02-24T12:30:57.860Z,14.18
2023-02-24T12:33:49.201Z,15.55
2023-02-24T12:36:46.870Z,16.23
2023-02-24T12:39:21.539Z,17.50
2023-02-24T12:42:07.444Z,15.95
2023-02-24T12:44:49.966Z,16.05
2023-02-24T12:47:27.873Z,22.27
2023-02-24T12:50:16.687Z,22.13
2023-02-24T12:53:05.094Z,16.20
2023-02-24T12:55:48.474Z,18.50
2023-02-24T12:58:25.298Z,23.15
2023-02-24T13:01:08.425Z,42.38
2023-02-24T13:04:08.863Z,20.23
2023-02-24T13:06:54.193Z,30.88
2023-02-24T13:09:33.421Z,15.32
2023-02-24T13:12:14.229Z,20.27
2023-02-24T13:14:44.329Z,25.88
2023-02-24T13:17:24.371Z,18.75
2023-02-24T13:19:55.700Z,16.00
2023-02-24T13:22:30.504Z,16.30
2023-02-24T13:25:19.826Z,14.90
2023-02-24T13:27:59.501Z,16.45
2023-02-24T13:30:35.323Z,15.65
2023-02-24T13:33:21.047Z,13.43
2023-02-24T13:35:52.444Z,19.92
2023-02-24T13:38:36.927Z,36.63
2023-02-24T13:41:22.478Z,14.63
2023-02-24T13:43:57.882Z,14.40
2023-02-24T13:46:30.824Z,15.45
2023-02-24T13:49:25.315Z,15.40
2023-02-24T13:52:05.188Z,63.13
2023-02-24T13:55:32.612Z,15.18
2023-02-24T13:58:30.004Z,13.32
2023-02-24T14:01:14.439Z,13.00
2023-02-24T14:03:46.406Z,12.63
2023-02-24T14:06:25.976Z,12.98
2023-02-24T14:08:58.901Z,13.50
2023-02-24T14:11:30.997Z,12.10
2023-02-24T14:14:01.192Z,42.38
2023-02-24T14:16:39.657Z,12.50
2023-02-24T14:19:17.037Z,11.05
2023-02-24T14:21:52.507Z,33.05
2023-02-24T14:24:22.269Z,12.45
2023-02-24T14:26:54.236Z,14.30
2023-02-24T14:29:27.524Z,10.80
2023-02-24T14:31:59.182Z,11.18
2023-02-24T14:34:30.845Z,13.00
2023-02-24T14:37:03.634Z,12.65
2023-02-24T14:39:34.192Z,10.27
2023-02-24T14:42:15.774Z,10.00
2023-02-24T14:44:48.609Z,9.55
2023-02-24T14:47:20.993Z,9.05
2023-02-24T14:49:59.306Z,8.57
2023-02-24T14:52:36.411Z,10.95
2023-02-24T14:55:13.567Z,8.93
2023-02-24T14:57:46.109Z,8.95
2023-02-24T15:00:24.029Z,8.10
2023-02-24T15:03:04.312Z,8.05
2023-02-24T15:05:33.154Z,8.45
2023-02-24T15:08:03.870Z,10.13
2023-02-24T15:10:33.145Z,8.70
2023-02-24T15:13:13.395Z,9.38
2023-02-24T15:15:43.086Z,10.70
2023-02-24T15:18:25.214Z,18.83
2023-02-24T15:21:02.383Z,7.53
2023-02-24T15:23:34.090Z,8.73
2023-02-24T15:26:04.434Z,25.55
2023-02-24T15:28:35.817Z,7.70
2023-02-24T15:31:11.606Z,11.55
2023-02-24T15:33:43.270Z,7.78
2023-02-24T15:36:19.379Z,8.63
2023-02-24T15:38:52.539Z,9.63
2023-02-24T15:41:20.822Z,8.35
2023-02-24T15:43:52.921Z,32.75
2023-02-24T15:46:31.469Z,8.55
2023-02-24T15:49:03.113Z,26.88
2023-02-24T15:51:38.143Z,9.18
2023-02-24T15:54:12.486Z,8.88
2023-02-24T15:56:42.959Z,9.63
2023-02-24T15:59:15.407Z,9.07
2023-02-24T16:01:45.641Z,8.82
2023-02-24T16:04:14.248Z,9.68
2023-02-24T16:06:54.612Z,9.57
2023-02-24T16:09:33.478Z,8.73
2023-02-24T16:12:04.231Z,10.48
2023-02-24T16:14:33.964Z,12.10
2023-02-24T16:17:08.777Z,11.02
2023-02-24T16:19:38.009Z,9.95
2023-02-24T16:22:06.169Z,15.48
2023-02-24T16:24:35.088Z,19.27
2023-02-24T16:27:03.652Z,22.83
2023-02-24T16:29:31.832Z,23.58
2023-02-24T16:32:00.266Z,12.48
2023-02-24T16:34:30.041Z,12.48
2023-02-24T16:36:58.215Z,10.85
2023-02-24T16:39:26.353Z,14.10
2023-02-24T16:41:54.496Z,13.95
2023-02-24T16:44:23.393Z,11.20
2023-02-24T16:46:52.631Z,11.00
2023-02-24T16:49:22.322Z,11.85
2023-02-24T16:51:51.882Z,12.73
2023-02-24T16:54:21.883Z,11.48
2023-02-24T16:56:50.614Z,11.85
2023-02-24T16:59:18.760Z,12.18
2023-02-24T17:01:47.094Z,12.32
2023-02-24T17:04:15.623Z,12.77
2023-02-24T17:06:44.034Z,12.23
2023-02-24T17:09:15.702Z,15.02
2023-02-24T17:11:47.166Z,11.00
2023-02-24T17:14:19.039Z,11.02
2023-02-24T17:16:48.431Z,11.15
2023-02-24T17:19:17.725Z,10.60
2023-02-24T17:21:46.785Z,10.90
2023-02-24T17:24:19.473Z,11.50
2023-02-24T17:26:48.490Z,13.98
2023-02-24T17:29:16.906Z,11.98
2023-02-24T17:31:45.272Z,11.55
2023-02-24T17:34:13.630Z,13.00
2023-02-24T17:36:42.003Z,12.10
2023-02-24T17:39:10.247Z,12.43
2023-02-24T17:41:39.792Z,11.60
2023-02-24T17:44:07.938Z,12.02
2023-02-24T17:46:36.151Z,13.50
2023-02-24T17:49:05.363Z,12.30
2023-02-24T17:51:33.869Z,14.40
2023-02-24T17:54:02.007Z,13.40
2023-02-24T17:56:30.359Z,13.18
2023-02-24T17:59:00.961Z,15.73
2023-02-24T18:01:30.055Z,17.30
2023-02-24T18:03:58.291Z,14.52
2023-02-24T18:06:26.961Z,11.75
2023-02-24T18:08:55.183Z,14.10
2023-02-24T18:11:23.370Z,11.25
2023-02-24T18:13:55.036Z,12.48
2023-02-24T18:16:25.199Z,10.25
2023-02-24T18:18:53.716Z,22.23
2023-02-24T18:21:22.018Z,15.13
2023-02-24T18:23:50.483Z,11.38
2023-02-24T18:26:18.840Z,14.43
2023-02-24T18:28:47.228Z,27.67
2023-02-24T18:31:18.279Z,13.90
2023-02-24T18:33:50.380Z,12.93
2023-02-24T18:36:19.576Z,13.02
2023-02-24T18:38:48.298Z,13.55
2023-02-24T18:41:20.075Z,10.85
2023-02-24T18:43:50.983Z,11.68
2023-02-24T18:46:21.239Z,12.00
2023-02-24T18:48:51.476Z,10.32
2023-02-24T18:51:22.492Z,12.20
2023-02-24T18:53:52.810Z,12.07
2023-02-24T18:56:24.418Z,46.55
2023-02-24T18:58:57.146Z,10.23
2023-02-24T19:01:29.331Z,10.80
2023-02-24T19:03:59.890Z,12.10
2023-02-24T19:06:32.002Z,9.65
2023-02-24T19:09:03.616Z,11.83
2023-02-24T19:11:31.907Z,12.15
2023-02-24T19:14:00.940Z,8.67
2023-02-24T19:16:29.906Z,10.00
2023-02-24T19:19:00.759Z,9.67
2023-02-24T19:21:31.353Z,9.85
2023-02-24T19:24:01.905Z,13.45
2023-02-24T19:26:30.731Z,11.88
2023-02-24T19:28:59.987Z,11.98
2023-02-24T19:31:31.514Z,14.25
2023-02-24T19:34:07.669Z,10.23
2023-02-24T19:36:37.538Z,9.35
2023-02-24T19:39:10.004Z,9.35
2023-02-24T19:41:38.444Z,9.00
2023-02-24T19:44:06.771Z,9.73
2023-02-24T19:46:36.228Z,12.53
2023-02-24T19:49:06.490Z,9.43
2023-02-24T19:51:35.009Z,9.95
2023-02-24T19:54:06.104Z,8.97
2023-02-24T19:56:37.733Z,10.07
2023-02-24T19:59:09.006Z,9.57
2023-02-24T20:01:37.538Z,8.73
2023-02-24T20:04:08.599Z,7.93
2023-02-24T20:06:40.995Z,9.43
2023-02-24T20:09:12.563Z,8.67
2023-02-24T20:11:41.214Z,8.50
2023-02-24T20:14:13.371Z,9.17
2023-02-24T20:16:43.402Z,8.90
2023-02-24T20:19:15.778Z,7.53
2023-02-24T20:21:44.248Z,7.30
2023-02-24T20:24:17.793Z,7.72
2023-02-24T20:26:49.590Z,7.67
2023-02-24T20:29:20.700Z,6.70
2023-02-24T20:31:49.447Z,6.63
2023-02-24T20:34:19.051Z,5.63
2023-02-24T20:36:47.339Z,5.40
2023-02-24T20:39:15.536Z,4.63
2023-02-24T20:41:44.450Z,3.63
2023-02-24T20:44:13.105Z,3.93
2023-02-24T20:46:41.377Z,3.40
2023-02-24T20:49:14.556Z,2.80
2023-02-24T20:51:45.094Z,2.13
2023-02-24T20:54:14.885Z,1.60
2023-02-24T20:56:45.550Z,2.13
2023-02-24T20:59:16.956Z,2.00
2023-02-24T21:01:47.744Z,3.20
2023-02-24T21:04:18.934Z,1.40
2023-02-24T21:06:51.199Z,1.80
2023-02-24T21:09:19.514Z,1.20
2023-02-24T21:11:47.700Z,1.30
2023-02-24T21:14:17.559Z,1.27
2023-02-24T21:16:46.988Z,1.23
2023-02-24T21:19:15.433Z,1.00
2023-02-24T21:21:43.581Z,0.90
2023-02-24T21:24:13.263Z,1.00
2023-02-24T21:26:41.536Z,1.10
2023-02-24T21:29:09.856Z,0.70
2023-02-24T21:31:38.265Z,0.73
2023-02-24T21:34:06.611Z,1.23
2023-02-24T21:36:34.928Z,1.10
2023-02-24T21:39:03.231Z,1.43
2023-02-24T21:41:35.428Z,1.30
2023-02-24T21:44:03.892Z,1.30
2023-02-24T21:46:32.218Z,1.47
2023-02-24T21:49:00.900Z,1.60
2023-02-24T21:51:29.658Z,1.27
2023-02-24T21:53:58.816Z,1.40
2023-02-24T21:56:29.506Z,1.13
2023-02-24T21:59:02.141Z,1.23
2023-02-24T22:01:33.792Z,1.43
2023-02-24T22:04:04.633Z,1.93
2023-02-24T22:06:35.218Z,1.20
2023-02-24T22:09:06.675Z,1.30
2023-02-24T22:11:39.307Z,1.33
2023-02-24T22:14:11.577Z,0.97
2023-02-24T22:16:41.299Z,0.93
2023-02-24T22:19:10.130Z,0.90
2023-02-24T22:21:39.502Z,1.00
2023-02-24T22:24:08.611Z,0.93
2023-02-24T22:26:37.072Z,1.17
2023-02-24T22:29:05.887Z,1.20
2023-02-24T22:31:38.109Z,0.90
2023-02-24T22:34:08.725Z,0.90
2023-02-24T22:36:38.466Z,0.80
2023-02-24T22:39:09.231Z,1.00
2023-02-24T22:41:38.481Z,1.00
2023-02-24T22:44:07.768Z,1.20
2023-02-24T22:46:39.612Z,1.30
2023-02-24T22:49:08.380Z,1.27
2023-02-24T22:51:37.098Z,1.20
2023-02-24T22:54:06.114Z,1.63
2023-02-24T22:56:34.617Z,1.53
2023-02-24T22:59:02.809Z,1.63
2023-02-24T23:01:34.008Z,1.40
2023-02-24T23:04:07.278Z,1.77
2023-02-24T23:06:37.175Z,1.80
2023-02-24T23:09:07.216Z,1.90
2023-02-24T23:11:39.242Z,2.20
2023-02-24T23:14:13.674Z,2.47
2023-02-24T23:16:46.459Z,2.50
2023-02-24T23:19:18.750Z,2.40
2023-02-24T23:21:49.680Z,1.77
2023-02-24T23:24:20.030Z,2.53
2023-02-24T23:26:53.744Z,2.80
2023-02-24T23:29:24.608Z,3.17
2023-02-24T23:31:53.451Z,3.83
2023-02-24T23:34:23.095Z,3.67
2023-02-24T23:36:51.400Z,3.73
2023-02-24T23:39:23.701Z,3.10
2023-02-24T23:41:57.497Z,3.67
2023-02-24T23:44:26.277Z,4.03
2023-02-24T23:46:54.692Z,3.97
2023-02-24T23:49:24.627Z,4.17
2023-02-24T23:51:53.315Z,5.73
2023-02-24T23:54:21.551Z,4.97
2023-02-24T23:56:50.275Z,3.87
2023-02-24T23:59:18.453Z,4.90
